createdAt,value
2019-01-03T00:02:20.823Z,190.20
2019-01-03T00:05:03.525Z,201.03
2019-01-03T00:07:49.447Z,224.67
2019-01-03T00:10:49.637Z,191.73
2019-01-03T00:13:33.107Z,194.63
2019-01-03T00:16:12.698Z,175.97
2019-01-03T00:19:08.582Z,182.60
2019-01-03T00:21:54.929Z,212.90
2019-01-03T00:24:40.581Z,196.77
2019-01-03T00:27:33.673Z,222.93
2019-01-03T00:30:35.840Z,192.77
2019-01-03T00:33:36.743Z,222.80
2019-01-03T00:36:22.418Z,188.33
2019-01-03T00:39:02.870Z,201.10
2019-01-03T00:41:49.939Z,176.13
2019-01-03T00:44:32.750Z,194.17
2019-01-03T00:47:32.208Z,214.90
2019-01-03T00:50:21.983Z,195.00
2019-01-03T00:53:07.793Z,234.10
2019-01-03T00:55:54.878Z,181.00
2019-01-03T00:58:36.376Z,190.50
2019-01-03T01:01:35.500Z,190.00
2019-01-03T01:04:21.027Z,185.53
2019-01-03T01:07:00.724Z,189.53
2019-01-03T01:09:41.083Z,216.47
2019-01-03T01:12:34.218Z,216.43
2019-01-03T01:15:33.482Z,200.20
2019-01-03T01:18:20.663Z,212.17
2019-01-03T01:24:42.418Z,214.57
2019-01-03T01:27:21.600Z,231.93
2019-01-03T01:30:16.948Z,200.93
2019-01-03T01:33:19.150Z,214.13
2019-01-03T01:36:04.855Z,209.60
2019-01-03T01:38:54.594Z,201.93
2019-01-03T01:41:52.349Z,198.10
2019-01-03T01:44:45.307Z,199.20
2019-01-03T01:47:31.041Z,244.93
2019-01-03T01:50:23.894Z,206.83
2019-01-03T01:53:05.755Z,232.13
2019-01-03T01:55:41.560Z,212.93
2019-01-03T01:58:43.658Z,213.83
2019-01-03T02:01:40.117Z,217.93
2019-01-03T02:04:39.605Z,201.30
2019-01-03T02:07:35.761Z,243.87
2019-01-03T02:10:29.155Z,209.27
2019-01-03T02:13:34.273Z,230.30
2019-01-03T02:16:20.772Z,195.07
2019-01-03T02:19:08.462Z,204.37
2019-01-03T02:21:53.585Z,211.00
2019-01-03T02:24:33.379Z,207.93
2019-01-03T02:27:23.165Z,230.23
2019-01-03T02:30:05.924Z,225.43
2019-01-03T02:33:02.701Z,223.43
2019-01-03T02:35:48.610Z,188.97
2019-01-03T02:38:36.092Z,214.50
2019-01-03T02:41:20.037Z,211.20
2019-01-03T02:44:07.403Z,206.17
2019-01-03T02:46:53.037Z,196.40
2019-01-03T02:49:52.470Z,237.30
2019-01-03T02:52:39.668Z,244.90
2019-01-03T02:55:25.784Z,221.13
2019-01-03T02:58:11.391Z,195.07
2019-01-03T03:00:57.128Z,162.57
2019-01-03T03:03:45.273Z,155.43
2019-01-03T03:06:35.826Z,186.73
2019-01-03T03:09:17.056Z,172.73
2019-01-03T03:12:02.434Z,168.00
2019-01-03T03:14:43.307Z,180.30
2019-01-03T03:17:39.188Z,193.90
2019-01-03T03:20:25.444Z,176.40
2019-01-03T03:23:18.643Z,178.83
2019-01-03T03:26:01.822Z,162.13
2019-01-03T03:29:03.722Z,162.70
2019-01-03T03:31:59.496Z,162.37
2019-01-03T03:34:41.605Z,162.73
2019-01-03T03:37:38.424Z,194.23
2019-01-03T03:40:24.712Z,169.37
2019-01-03T03:43:22.541Z,171.87
2019-01-03T03:46:09.750Z,157.40
2019-01-03T03:48:55.842Z,155.90
2019-01-03T03:51:49.453Z,164.33
2019-01-03T03:54:43.299Z,172.47
2019-01-03T03:57:29.303Z,200.50
2019-01-03T04:00:11.129Z,156.77
2019-01-03T04:02:57.454Z,186.57
2019-01-03T04:05:43.920Z,167.33
2019-01-03T04:08:38.732Z,163.57
2019-01-03T04:11:43.745Z,164.07
2019-01-03T04:14:29.590Z,166.23
2019-01-03T04:17:13.196Z,164.07
2019-01-03T04:20:03.259Z,162.87
2019-01-03T04:22:53.398Z,174.07
2019-01-03T04:25:46.513Z,154.50
2019-01-03T04:28:36.313Z,158.13
2019-01-03T04:31:22.526Z,156.67
2019-01-03T04:34:09.788Z,149.93
2019-01-03T04:36:56.850Z,156.67
2019-01-03T04:39:56.021Z,163.17
2019-01-03T04:42:52.707Z,182.20
2019-01-03T04:45:48.740Z,161.20
2019-01-03T04:48:30.839Z,174.17
2019-01-03T04:51:13.844Z,161.93
2019-01-03T04:53:59.284Z,161.87
2019-01-03T04:56:44.786Z,152.33
2019-01-03T04:59:29.064Z,159.07
2019-01-03T05:02:15.166Z,164.40
2019-01-03T05:05:06.023Z,147.13
2019-01-03T05:07:51.938Z,174.83
2019-01-03T05:10:37.649Z,161.67
2019-01-03T05:13:43.297Z,174.37
2019-01-03T05:16:29.457Z,153.40
2019-01-03T05:19:19.475Z,154.90
2019-01-03T05:22:09.690Z,154.37
2019-01-03T05:24:49.764Z,152.43
2019-01-03T05:27:48.956Z,166.87
2019-01-03T05:30:46.213Z,158.60
2019-01-03T05:33:32.283Z,154.30
2019-01-03T05:36:19.621Z,154.50
2019-01-03T05:39:05.804Z,152.10
2019-01-03T05:41:53.678Z,149.80
2019-01-03T05:44:51.699Z,154.70
2019-01-03T05:47:40.991Z,178.63
2019-01-03T05:50:31.654Z,149.97
2019-01-03T05:53:19.292Z,166.20
2019-01-03T05:56:09.752Z,157.07
2019-01-03T05:58:49.089Z,159.27
2019-01-03T06:01:41.902Z,162.67
2019-01-03T06:04:40.742Z,161.60
2019-01-03T06:07:40.215Z,169.23
2019-01-03T06:10:34.483Z,151.70
2019-01-03T06:13:30.350Z,175.07
2019-01-03T06:16:21.380Z,144.97
2019-01-03T06:19:09.690Z,165.93
2019-01-03T06:21:56.956Z,154.77
2019-01-03T06:24:54.452Z,156.17
2019-01-03T06:27:40.231Z,190.57
2019-01-03T06:30:39.683Z,165.60
2019-01-03T06:33:32.950Z,165.90
2019-01-03T06:36:29.341Z,164.27
2019-01-03T06:39:30.216Z,155.10
2019-01-03T06:42:26.736Z,151.10
2019-01-03T06:45:12.141Z,165.77
2019-01-03T06:47:58.372Z,185.57
2019-01-03T06:50:54.998Z,173.40
2019-01-03T06:53:48.303Z,166.27
2019-01-03T06:56:47.444Z,171.27
2019-01-03T06:59:43.863Z,172.07
2019-01-03T07:02:30.858Z,187.80
2019-01-03T07:05:17.718Z,168.33
2019-01-03T07:08:03.603Z,190.30
2019-01-03T07:10:56.873Z,178.27
2019-01-03T07:13:52.981Z,178.20
2019-01-03T07:16:53.363Z,181.40
2019-01-03T07:19:39.132Z,183.07
2019-01-03T07:22:22.416Z,199.87
2019-01-03T07:25:16.115Z,173.10
2019-01-03T07:28:02.407Z,201.53
2019-01-03T07:30:57.662Z,168.30
2019-01-03T07:33:50.730Z,172.70
2019-01-03T07:36:46.062Z,177.50
2019-01-03T07:39:45.159Z,175.23
2019-01-03T07:42:31.964Z,203.23
2019-01-03T07:45:21.669Z,170.63
2019-01-03T07:48:15.075Z,195.37
2019-01-03T07:51:14.497Z,174.63
2019-01-03T07:54:02.444Z,182.03
2019-01-03T07:56:50.202Z,173.80
2019-01-03T07:59:40.596Z,197.87
2019-01-03T08:02:27.109Z,182.80
2019-01-03T08:05:14.785Z,167.13
2019-01-03T08:08:07.003Z,176.90
2019-01-03T08:10:56.014Z,173.17
2019-01-03T08:14:01.989Z,186.23
2019-01-03T08:16:54.059Z,168.87
2019-01-03T08:20:14.082Z,210.13
2019-01-03T08:23:01.906Z,195.43
2019-01-03T08:25:57.491Z,162.53
2019-01-03T08:28:39.213Z,168.07
2019-01-03T08:31:35.566Z,191.60
2019-01-03T08:34:22.163Z,188.80
2019-01-03T08:37:24.533Z,176.50
2019-01-03T08:40:10.906Z,192.67
2019-01-03T08:42:56.919Z,198.67
2019-01-03T08:45:42.741Z,187.50
2019-01-03T08:48:31.020Z,187.97
2019-01-03T08:51:36.710Z,187.23
2019-01-03T08:54:29.069Z,182.43
2019-01-03T08:57:20.117Z,170.70
2019-01-03T09:00:10.627Z,191.57
2019-01-03T09:02:56.887Z,198.03
2019-01-03T09:05:45.790Z,176.40
2019-01-03T09:08:37.013Z,192.83
2019-01-03T09:11:24.671Z,178.50
2019-01-03T09:14:13.834Z,221.37
2019-01-03T09:16:57.726Z,173.63
2019-01-03T09:20:04.530Z,183.03
2019-01-03T09:22:52.162Z,180.10
2019-01-03T09:25:38.165Z,180.90
2019-01-03T09:28:27.465Z,181.17
2019-01-03T09:31:24.962Z,189.30
2019-01-03T09:34:18.576Z,179.83
2019-01-03T09:37:14.327Z,201.80
2019-01-03T09:40:04.961Z,185.97
2019-01-03T09:43:07.544Z,199.70
2019-01-03T09:45:44.116Z,173.13
2019-01-03T09:48:13.860Z,196.10
2019-01-03T09:50:43.916Z,171.00
2019-01-03T09:53:12.491Z,192.43
2019-01-03T09:55:41.627Z,172.63
2019-01-03T09:58:10.984Z,182.17
2019-01-03T10:04:14.425Z,218.40
2019-01-03T10:06:44.562Z,199.77
2019-01-03T10:09:12.806Z,211.63
2019-01-03T10:11:41.004Z,233.90
2019-01-03T10:14:08.466Z,232.53
2019-01-03T10:16:36.268Z,219.10
2019-01-03T10:19:03.880Z,239.97
2019-01-03T10:21:31.354Z,208.77
2019-01-03T10:23:59.128Z,224.30
2019-01-03T10:26:26.659Z,203.33
2019-01-03T10:28:55.334Z,253.87
2019-01-03T10:31:22.830Z,212.03
2019-01-03T10:33:51.574Z,218.20
2019-01-03T10:36:24.275Z,190.63
2019-01-03T10:38:51.049Z,214.33
2019-01-03T10:41:18.543Z,219.77
2019-01-03T10:43:48.131Z,214.13
2019-01-03T10:46:17.349Z,245.03
2019-01-03T10:48:44.731Z,201.40
2019-01-03T10:51:12.127Z,230.73
2019-01-03T10:53:40.814Z,218.07
2019-01-03T10:56:09.640Z,228.33
2019-01-03T10:58:39.361Z,220.17
2019-01-03T11:01:07.085Z,241.63
2019-01-03T11:03:34.658Z,221.57
2019-01-03T11:06:02.133Z,220.23
2019-01-03T11:08:29.901Z,214.23
2019-01-03T11:11:02.108Z,208.13
2019-01-03T11:13:27.717Z,202.03
2019-01-03T11:15:55.898Z,213.67
2019-01-03T11:18:25.680Z,220.17
2019-01-03T11:20:54.822Z,204.07
2019-01-03T11:23:22.940Z,219.67
2019-01-03T11:25:52.008Z,207.23
2019-01-03T11:28:20.331Z,205.97
2019-01-03T11:30:47.667Z,206.10
2019-01-03T11:33:15.078Z,208.83
2019-01-03T11:35:44.610Z,227.17
2019-01-03T11:38:12.169Z,219.77
2019-01-03T11:40:39.816Z,198.90
2019-01-03T11:43:07.495Z,203.30
2019-01-03T11:45:36.272Z,204.37
2019-01-03T11:48:05.076Z,230.07
2019-01-03T11:50:33.955Z,209.20
2019-01-03T11:53:01.560Z,233.43
2019-01-03T11:55:29.630Z,209.23
2019-01-03T11:57:57.158Z,252.43
2019-01-03T12:00:24.774Z,217.63
2019-01-03T12:02:52.151Z,234.97
2019-01-03T12:05:19.689Z,217.87
2019-01-03T12:07:49.788Z,232.97
2019-01-03T12:10:19.060Z,230.07
2019-01-03T12:12:48.239Z,230.03
2019-01-03T12:15:17.662Z,196.93
2019-01-03T12:17:45.459Z,249.50
2019-01-03T12:20:12.787Z,198.70
2019-01-03T12:22:41.377Z,241.30
2019-01-03T12:25:09.661Z,288.37
2019-01-03T12:27:37.675Z,232.53
2019-01-03T12:30:09.340Z,214.60
2019-01-03T12:32:38.344Z,245.60
2019-01-03T12:35:06.699Z,201.73
2019-01-03T12:37:36.171Z,227.67
2019-01-03T12:40:06.002Z,204.17
2019-01-03T12:42:33.473Z,240.73
2019-01-03T12:45:00.844Z,206.13
2019-01-03T12:47:28.285Z,230.33
2019-01-03T12:49:56.138Z,200.10
2019-01-03T12:52:23.542Z,267.83
2019-01-03T12:54:51.043Z,206.50
2019-01-03T12:57:18.637Z,272.90
2019-01-03T12:59:46.043Z,224.97
2019-01-03T13:02:13.579Z,248.80
2019-01-03T13:04:41.030Z,199.43
2019-01-03T13:07:08.548Z,232.67
2019-01-03T13:09:35.896Z,216.63
2019-01-03T13:12:03.475Z,218.97
2019-01-03T13:14:30.924Z,218.13
2019-01-03T13:16:58.435Z,203.73
2019-01-03T13:19:26.458Z,215.23
2019-01-03T13:21:54.060Z,217.17
2019-01-03T13:24:21.415Z,229.30
2019-01-03T13:26:48.872Z,212.63
2019-01-03T13:29:16.694Z,211.97
2019-01-03T13:31:45.197Z,220.70
2019-01-03T13:34:12.697Z,234.47
2019-01-03T13:36:40.383Z,242.43
2019-01-03T13:39:07.952Z,234.77
2019-01-03T13:41:35.407Z,191.10
2019-01-03T13:44:03.028Z,218.57
2019-01-03T13:46:30.551Z,207.03
2019-01-03T13:48:58.158Z,214.10
2019-01-03T13:51:26.098Z,200.77
2019-01-03T13:53:53.438Z,216.30
2019-01-03T13:56:21.852Z,219.27
2019-01-03T13:58:49.888Z,200.47
2019-01-03T14:01:17.448Z,206.63
2019-01-03T14:03:45.150Z,190.37
2019-01-03T14:06:12.693Z,200.73
2019-01-03T14:08:40.112Z,199.80
2019-01-03T14:11:07.803Z,229.63
2019-01-03T14:13:35.432Z,220.90
2019-01-03T14:16:03.079Z,225.13
2019-01-03T14:18:30.528Z,207.40
2019-01-03T14:20:59.998Z,198.60
2019-01-03T14:23:27.549Z,205.43
2019-01-03T14:25:55.195Z,216.30
2019-01-03T14:28:22.764Z,208.70
2019-01-03T14:30:50.231Z,212.03
2019-01-03T14:33:20.440Z,264.87
2019-01-03T14:35:49.835Z,210.00
2019-01-03T14:38:19.382Z,206.20
2019-01-03T14:40:49.795Z,198.53
2019-01-03T14:43:18.674Z,210.33
2019-01-03T14:45:46.492Z,221.07
2019-01-03T14:48:14.055Z,226.87
2019-01-03T14:50:42.212Z,211.53
2019-01-03T14:53:09.702Z,209.93
2019-01-03T14:55:37.074Z,215.60
2019-01-03T14:58:04.687Z,210.13
2019-01-03T15:00:32.138Z,234.57
2019-01-03T15:02:59.529Z,227.53
2019-01-03T15:05:27.039Z,205.43
2019-01-03T15:07:54.500Z,258.67
2019-01-03T15:10:21.878Z,225.87
2019-01-03T15:12:49.268Z,250.77
2019-01-03T15:15:16.713Z,233.03
2019-01-03T15:17:44.539Z,274.43
2019-01-03T15:20:12.127Z,212.17
2019-01-03T15:22:40.612Z,263.90
2019-01-03T15:25:08.094Z,223.53
2019-01-03T15:27:35.526Z,274.23
2019-01-03T15:30:04.070Z,193.50
2019-01-03T15:32:31.494Z,251.67
2019-01-03T15:34:59.770Z,207.10
2019-01-03T15:37:27.264Z,251.83
2019-01-03T15:39:54.863Z,223.57
2019-01-03T15:42:22.951Z,251.20
2019-01-03T15:44:51.278Z,203.77
2019-01-03T15:47:18.884Z,284.47
2019-01-03T15:49:46.338Z,213.10
2019-01-03T15:52:15.242Z,265.10
2019-01-03T15:54:42.753Z,210.03
2019-01-03T15:57:10.254Z,257.53
2019-01-03T15:59:37.820Z,211.63
2019-01-03T16:02:06.323Z,220.50
2019-01-03T16:04:37.640Z,201.00
2019-01-03T16:07:06.062Z,229.17
2019-01-03T16:09:33.624Z,217.93
2019-01-03T16:12:00.962Z,215.73
2019-01-03T16:14:52.375Z,211.67
2019-01-03T16:17:19.943Z,234.10
2019-01-03T16:19:48.290Z,232.87
2019-01-03T16:22:15.745Z,234.77
2019-01-03T16:24:43.612Z,231.30
2019-01-03T16:27:11.254Z,247.67
2019-01-03T16:29:39.262Z,226.70
2019-01-03T16:32:06.804Z,228.70
2019-01-03T16:34:34.521Z,213.63
2019-01-03T16:37:02.173Z,227.07
2019-01-03T16:39:58.218Z,219.63
2019-01-03T16:42:42.370Z,232.23
2019-01-03T16:45:11.232Z,208.77
2019-01-03T16:47:38.930Z,261.07
2019-01-03T16:50:10.298Z,209.97
2019-01-03T16:52:37.902Z,245.53
2019-01-03T16:55:05.759Z,216.07
2019-01-03T16:57:33.691Z,252.97
2019-01-03T17:00:01.226Z,227.43
2019-01-03T17:02:34.306Z,273.10
2019-01-03T17:05:04.016Z,216.50
2019-01-03T17:08:01.312Z,266.13
2019-01-03T17:10:28.990Z,239.57
2019-01-03T17:12:56.398Z,255.10
2019-01-03T17:15:24.154Z,236.53
2019-01-03T17:17:51.848Z,252.43
2019-01-03T17:20:19.362Z,245.23
2019-01-03T17:22:47.070Z,250.27
2019-01-03T17:25:14.727Z,228.30
2019-01-03T17:27:42.372Z,268.07
2019-01-03T17:30:10.944Z,223.30
2019-01-03T17:32:39.223Z,264.20
2019-01-03T17:35:08.587Z,212.77
2019-01-03T17:37:36.350Z,246.23
2019-01-03T17:40:05.853Z,202.63
2019-01-03T17:42:33.459Z,256.47
2019-01-03T17:45:00.855Z,228.93
2019-01-03T17:47:30.515Z,244.20
2019-01-03T17:49:58.119Z,206.97
2019-01-03T17:52:25.704Z,244.47
2019-01-03T17:54:53.304Z,234.17
2019-01-03T17:57:21.590Z,243.47
2019-01-03T17:59:49.081Z,216.57
2019-01-03T18:02:18.134Z,238.50
2019-01-03T18:04:45.647Z,236.80
2019-01-03T18:07:13.558Z,284.63
2019-01-03T18:09:41.907Z,250.80
2019-01-03T18:12:09.520Z,239.00
2019-01-03T18:14:37.112Z,239.80
2019-01-03T18:17:04.780Z,235.63
2019-01-03T18:19:32.683Z,246.30
2019-01-03T18:22:00.405Z,244.17
2019-01-03T18:24:28.815Z,253.83
2019-01-03T18:26:57.162Z,212.27
2019-01-03T18:29:31.973Z,225.33
2019-01-03T18:32:04.376Z,226.00
2019-01-03T18:34:34.794Z,210.57
2019-01-03T18:37:03.918Z,236.20
2019-01-03T18:39:33.855Z,235.57
2019-01-03T18:42:04.208Z,266.03
2019-01-03T18:44:33.050Z,243.87
2019-01-03T18:47:04.940Z,333.97
2019-01-03T18:49:33.494Z,301.87
2019-01-03T18:52:01.034Z,267.73
2019-01-03T18:54:28.623Z,245.17
2019-01-03T18:56:56.089Z,272.00
2019-01-03T18:59:23.759Z,250.17
2019-01-03T19:01:51.482Z,239.20
2019-01-03T19:04:19.114Z,259.30
2019-01-03T19:06:46.636Z,267.33
2019-01-03T19:09:14.389Z,245.87
2019-01-03T19:11:41.919Z,247.70
2019-01-03T19:14:10.169Z,243.47
2019-01-03T19:16:37.935Z,233.87
2019-01-03T19:19:06.543Z,218.57
2019-01-03T19:21:36.135Z,257.37
2019-01-03T19:24:03.959Z,255.73
2019-01-03T19:26:32.471Z,258.60
2019-01-03T19:29:00.341Z,253.43
2019-01-03T19:31:28.108Z,257.53
2019-01-03T19:33:55.793Z,234.93
2019-01-03T19:36:23.569Z,262.27
2019-01-03T19:38:50.994Z,242.93
2019-01-03T19:41:18.792Z,252.40
2019-01-03T19:43:47.660Z,249.27
2019-01-03T19:46:15.232Z,256.83
2019-01-03T19:48:43.494Z,229.83
2019-01-03T19:51:11.930Z,276.10
2019-01-03T19:53:45.308Z,237.33
2019-01-03T19:56:15.913Z,246.30
2019-01-03T19:58:45.509Z,250.87
2019-01-03T20:01:15.737Z,237.93
2019-01-03T20:03:44.208Z,262.83
2019-01-03T20:06:13.438Z,250.57
2019-01-03T20:08:42.029Z,231.50
2019-01-03T20:11:10.165Z,230.70
2019-01-03T20:13:38.551Z,241.03
2019-01-03T20:16:07.815Z,234.47
2019-01-03T20:18:36.612Z,230.03
2019-01-03T20:21:08.898Z,231.93
2019-01-03T20:23:37.597Z,263.03
2019-01-03T20:26:07.530Z,223.43
2019-01-03T20:28:35.714Z,245.67
2019-01-03T20:31:05.761Z,258.13
2019-01-03T20:33:33.540Z,272.03
2019-01-03T20:36:01.203Z,230.73
2019-01-03T20:38:29.183Z,250.33
2019-01-03T20:40:58.150Z,255.57
2019-01-03T20:43:26.038Z,252.37
2019-01-03T20:45:54.024Z,245.87
2019-01-03T20:48:24.912Z,279.10
2019-01-03T20:50:52.847Z,258.60
2019-01-03T20:53:21.017Z,234.13
2019-01-03T20:55:51.322Z,261.23
2019-01-03T20:58:18.915Z,254.27
2019-01-03T21:00:49.039Z,249.20
2019-01-03T21:03:18.955Z,262.53
2019-01-03T21:05:47.092Z,260.23
2019-01-03T21:08:20.159Z,252.50
2019-01-03T21:10:47.944Z,249.83
2019-01-03T21:13:16.466Z,257.07
2019-01-03T21:15:45.179Z,267.37
2019-01-03T21:18:12.858Z,254.87
2019-01-03T21:20:40.504Z,261.30
2019-01-03T21:23:11.251Z,290.30
2019-01-03T21:25:39.328Z,240.23
2019-01-03T21:28:09.236Z,259.63
2019-01-03T21:30:37.117Z,234.90
2019-01-03T21:33:04.915Z,275.53
2019-01-03T21:35:32.469Z,233.03
2019-01-03T21:37:59.938Z,294.47
2019-01-03T21:40:27.944Z,293.37
2019-01-03T21:42:55.601Z,279.07
2019-01-03T21:45:23.151Z,260.50
2019-01-03T21:47:50.825Z,265.30
2019-01-03T21:50:19.729Z,275.50
2019-01-03T21:52:47.373Z,250.90
2019-01-03T21:55:14.867Z,261.37
2019-01-03T21:57:42.815Z,263.67
2019-01-03T22:00:11.988Z,244.70
2019-01-03T22:02:39.701Z,276.07
2019-01-03T22:05:07.546Z,245.47
2019-01-03T22:07:35.238Z,273.10
2019-01-03T22:10:03.127Z,242.90
2019-01-03T22:12:31.759Z,268.80
2019-01-03T22:14:59.217Z,258.00
2019-01-03T22:17:26.810Z,260.10
2019-01-03T22:19:54.334Z,253.93
2019-01-03T22:22:21.928Z,279.27
2019-01-03T22:24:49.348Z,247.93
2019-01-03T22:27:16.801Z,284.13
2019-01-03T22:29:44.471Z,225.73
2019-01-03T22:32:12.056Z,265.27
2019-01-03T22:34:39.795Z,223.27
2019-01-03T22:37:07.466Z,233.87
2019-01-03T22:39:35.006Z,226.30
2019-01-03T22:42:02.654Z,233.27
2019-01-03T22:44:30.309Z,243.80
2019-01-03T22:46:57.909Z,240.00
2019-01-03T22:49:25.432Z,226.43
2019-01-03T22:51:53.247Z,245.67
2019-01-03T22:54:20.697Z,251.03
2019-01-03T22:56:48.364Z,215.20
2019-01-03T22:59:16.098Z,230.53
2019-01-03T23:01:43.696Z,230.53
2019-01-03T23:04:12.752Z,216.87
2019-01-03T23:06:40.226Z,199.23
2019-01-03T23:09:07.950Z,221.57
2019-01-03T23:11:35.427Z,235.53
2019-01-03T23:14:02.896Z,220.27
2019-01-03T23:16:30.310Z,229.60
2019-01-03T23:18:58.078Z,216.37
2019-01-03T23:21:25.546Z,234.57
2019-01-03T23:23:53.125Z,218.93
2019-01-03T23:26:21.539Z,238.40
2019-01-03T23:28:49.037Z,224.00
2019-01-03T23:31:16.486Z,246.10
2019-01-03T23:33:43.984Z,225.60
2019-01-03T23:36:11.604Z,218.37
2019-01-03T23:38:39.049Z,218.37
2019-01-03T23:41:06.441Z,212.07
2019-01-03T23:43:34.159Z,211.23
2019-01-03T23:46:01.746Z,232.90
2019-01-03T23:48:29.648Z,232.33
2019-01-03T23:50:57.365Z,193.17
2019-01-03T23:53:24.856Z,195.63
2019-01-03T23:55:56.502Z,224.27
2019-01-03T23:58:24.168Z,211.87
